createdAt,value
2022-10-17T00:00:05.809Z,3.90
2022-10-17T00:03:12.949Z,3.90
2022-10-17T00:06:20.989Z,3.90
2022-10-17T00:09:28.961Z,3.70
2022-10-17T00:12:36.038Z,3.50
2022-10-17T00:15:43.832Z,3.30
2022-10-17T00:18:51.463Z,4.50
2022-10-17T00:21:58.592Z,4.40
2022-10-17T00:25:06.333Z,4.90
2022-10-17T00:28:19.761Z,4.50
2022-10-17T00:31:27.989Z,5.70
2022-10-17T00:34:35.865Z,4.90
2022-10-17T00:37:43.318Z,5.10
2022-10-17T00:40:50.879Z,5.80
2022-10-17T00:43:58.710Z,5.70
2022-10-17T00:47:06.346Z,5.40
2022-10-17T00:50:13.847Z,5.40
2022-10-17T00:53:21.696Z,5.10
2022-10-17T00:56:29.236Z,4.50
2022-10-17T00:59:36.697Z,4.60
2022-10-17T01:02:44.317Z,4.30
2022-10-17T01:05:52.111Z,4.10
2022-10-17T01:08:59.551Z,4.20
2022-10-17T01:12:06.943Z,4.40
2022-10-17T01:15:14.071Z,4.20
2022-10-17T01:18:21.132Z,4.20
2022-10-17T01:21:28.891Z,4.50
2022-10-17T01:24:36.192Z,4.60
2022-10-17T01:27:43.224Z,4.70
2022-10-17T01:30:50.965Z,4.70
2022-10-17T01:33:58.345Z,4.40
2022-10-17T01:37:05.806Z,4.30
2022-10-17T01:40:13.536Z,4.20
2022-10-17T01:43:20.619Z,4.40
2022-10-17T01:46:28.379Z,4.40
2022-10-17T01:49:36.249Z,4.60
2022-10-17T01:52:43.290Z,4.60
2022-10-17T01:55:51.058Z,5.40
2022-10-17T01:58:58.840Z,4.40
2022-10-17T02:02:05.823Z,4.80
2022-10-17T02:05:13.614Z,4.60
2022-10-17T02:08:21.295Z,4.90
2022-10-17T02:11:28.747Z,4.70
2022-10-17T02:14:36.305Z,5.00
2022-10-17T02:17:43.619Z,4.90
2022-10-17T02:20:51.024Z,4.60
2022-10-17T02:23:58.629Z,4.40
2022-10-17T02:27:06.111Z,4.60
2022-10-17T02:30:13.514Z,4.10
2022-10-17T02:33:20.882Z,4.90
2022-10-17T02:36:28.345Z,4.20
2022-10-17T02:39:35.681Z,3.90
2022-10-17T02:42:43.134Z,3.90
2022-10-17T02:45:50.814Z,3.80
2022-10-17T02:48:58.337Z,4.10
2022-10-17T02:52:05.655Z,3.90
2022-10-17T02:55:13.187Z,3.60
2022-10-17T02:58:20.308Z,3.70
2022-10-17T03:01:28.277Z,3.40
2022-10-17T03:04:35.561Z,3.30
2022-10-17T03:07:43.029Z,3.30
2022-10-17T03:10:50.920Z,3.30
2022-10-17T03:13:57.921Z,3.70
2022-10-17T03:17:05.826Z,3.70
2022-10-17T03:20:13.603Z,3.20
2022-10-17T03:23:20.646Z,3.70
2022-10-17T03:26:28.448Z,3.60
2022-10-17T03:29:36.455Z,3.40
2022-10-17T03:32:43.575Z,3.60
2022-10-17T03:35:51.720Z,3.90
2022-10-17T03:38:59.346Z,4.00
2022-10-17T03:42:06.858Z,3.70
2022-10-17T03:45:14.728Z,3.80
2022-10-17T03:48:22.282Z,3.80
2022-10-17T03:51:29.837Z,3.90
2022-10-17T03:54:37.896Z,4.20
2022-10-17T03:57:45.790Z,3.70
2022-10-17T04:00:53.361Z,3.70
2022-10-17T04:04:00.833Z,4.00
2022-10-17T04:07:08.608Z,3.90
2022-10-17T04:10:16.141Z,3.80
2022-10-17T04:13:23.610Z,4.40
2022-10-17T04:16:31.377Z,4.80
2022-10-17T04:19:38.938Z,4.30
2022-10-17T04:22:46.299Z,3.60
2022-10-17T04:25:54.483Z,4.40
2022-10-17T04:29:01.603Z,4.10
2022-10-17T04:32:09.433Z,3.90
2022-10-17T04:35:17.340Z,3.90
2022-10-17T04:38:27.744Z,4.80
2022-10-17T04:41:25.892Z,4.90
2022-10-17T04:44:33.802Z,4.80
2022-10-17T04:47:40.926Z,4.70
2022-10-17T04:50:48.778Z,5.50
2022-10-17T04:53:56.248Z,5.30
2022-10-17T04:57:03.901Z,5.50
2022-10-17T05:00:12.004Z,4.90
2022-10-17T05:03:19.211Z,5.60
2022-10-17T05:06:27.410Z,5.30
2022-10-17T05:09:35.218Z,5.30
2022-10-17T05:12:42.352Z,5.40
2022-10-17T05:15:50.549Z,5.50
2022-10-17T05:18:58.424Z,5.50
2022-10-17T05:22:05.475Z,6.10
2022-10-17T05:25:13.345Z,6.10
2022-10-17T05:28:21.026Z,5.70
2022-10-17T05:31:28.577Z,5.70
2022-10-17T05:34:36.058Z,6.00
2022-10-17T05:37:43.661Z,5.90
2022-10-17T05:40:51.482Z,6.20
2022-10-17T05:44:01.762Z,6.00
2022-10-17T05:47:01.549Z,6.50
2022-10-17T05:50:09.134Z,6.70
2022-10-17T05:53:16.243Z,6.40
2022-10-17T05:56:24.074Z,6.50
2022-10-17T05:59:31.577Z,6.40
2022-10-17T06:02:38.884Z,6.00
2022-10-17T06:05:46.536Z,5.60
2022-10-17T06:08:54.154Z,6.30
2022-10-17T06:12:01.685Z,5.90
2022-10-17T06:15:09.518Z,5.70
2022-10-17T06:18:16.657Z,5.20
2022-10-17T06:21:24.779Z,5.70
2022-10-17T06:24:32.817Z,5.30
2022-10-17T06:27:40.046Z,5.00
2022-10-17T06:30:48.012Z,4.50
2022-10-17T06:33:55.883Z,3.90
2022-10-17T06:37:03.015Z,4.10
2022-10-17T06:40:10.912Z,4.00
2022-10-17T06:43:18.134Z,4.00
2022-10-17T06:46:25.896Z,4.00
2022-10-17T06:49:33.834Z,4.20
2022-10-17T06:52:40.888Z,3.90
2022-10-17T06:55:48.679Z,3.80
2022-10-17T06:58:56.507Z,3.90
2022-10-17T07:02:03.691Z,3.80
2022-10-17T07:05:11.806Z,3.90
2022-10-17T07:08:19.980Z,3.90
2022-10-17T07:11:27.185Z,3.60
2022-10-17T07:14:35.205Z,4.50
2022-10-17T07:17:42.685Z,4.10
2022-10-17T07:20:50.195Z,3.80
2022-10-17T07:23:58.143Z,3.80
2022-10-17T07:27:05.636Z,3.90
2022-10-17T07:30:13.157Z,3.30
2022-10-17T07:33:21.219Z,3.20
2022-10-17T07:36:28.440Z,3.20
2022-10-17T07:39:36.110Z,3.00
2022-10-17T07:42:44.114Z,2.60
2022-10-17T07:45:51.711Z,3.20
2022-10-17T07:48:59.163Z,3.10
2022-10-17T07:52:06.747Z,3.20
2022-10-17T07:55:14.616Z,3.00
2022-10-17T07:58:22.275Z,3.30
2022-10-17T08:01:29.629Z,2.50
2022-10-17T08:04:37.436Z,3.00
2022-10-17T08:07:44.900Z,2.80
2022-10-17T08:10:52.550Z,2.80
2022-10-17T08:14:00.086Z,2.60
2022-10-17T08:17:07.531Z,2.30
2022-10-17T08:20:14.938Z,2.50
2022-10-17T08:23:22.672Z,2.20
2022-10-17T08:26:29.923Z,2.40
2022-10-17T08:29:37.677Z,2.00
2022-10-17T08:32:45.264Z,2.20
2022-10-17T08:35:52.865Z,2.20
2022-10-17T08:39:00.856Z,2.30
2022-10-17T08:42:08.077Z,2.40
2022-10-17T08:45:16.059Z,1.90
2022-10-17T08:48:24.302Z,2.50
2022-10-17T08:51:31.680Z,2.10
2022-10-17T08:54:39.943Z,1.90
2022-10-17T08:57:48.283Z,1.80
2022-10-17T09:00:55.654Z,1.90
2022-10-17T09:04:03.754Z,1.90
2022-10-17T09:07:11.636Z,2.20
2022-10-17T09:10:19.495Z,1.80
2022-10-17T09:13:28.086Z,2.00
2022-10-17T09:16:35.479Z,2.10
2022-10-17T09:19:43.209Z,2.10
2022-10-17T09:22:50.991Z,1.60
2022-10-17T09:25:58.891Z,1.80
2022-10-17T09:29:06.733Z,1.70
2022-10-17T09:32:14.659Z,1.60
2022-10-17T09:35:23.015Z,1.70
2022-10-17T09:38:30.825Z,2.00
2022-10-17T09:41:45.274Z,1.80
2022-10-17T09:44:43.046Z,1.50
2022-10-17T09:51:14.640Z,1.50
2022-10-17T09:54:03.710Z,1.40
2022-10-17T09:57:11.155Z,1.40
2022-10-17T10:00:19.272Z,1.30
2022-10-17T10:03:27.475Z,1.70
2022-10-17T10:06:34.856Z,1.70
2022-10-17T10:09:43.229Z,1.30
2022-10-17T10:12:51.069Z,1.40
2022-10-17T10:15:58.451Z,1.40
2022-10-17T10:19:08.404Z,1.70
2022-10-17T10:22:16.423Z,1.50
2022-10-17T10:25:24.534Z,1.30
2022-10-17T10:28:32.603Z,1.40
2022-10-17T10:31:39.932Z,1.30
2022-10-17T10:34:48.208Z,2.10
2022-10-17T10:37:56.406Z,1.50
2022-10-17T10:41:03.715Z,1.40
2022-10-17T10:44:11.866Z,1.40
2022-10-17T10:47:19.641Z,1.20
2022-10-17T10:50:27.482Z,1.80
2022-10-17T10:53:35.861Z,1.30
2022-10-17T10:56:43.314Z,1.30
2022-10-17T10:59:51.094Z,1.40
2022-10-17T11:03:01.233Z,1.40
2022-10-17T11:06:09.867Z,1.10
2022-10-17T11:09:17.515Z,1.50
2022-10-17T11:12:25.418Z,1.40
2022-10-17T11:15:33.717Z,1.20
2022-10-17T11:18:41.628Z,1.40
2022-10-17T11:21:49.573Z,1.30
2022-10-17T11:24:57.635Z,1.30
2022-10-17T11:28:05.472Z,1.50
2022-10-17T11:31:13.870Z,1.00
2022-10-17T11:34:22.145Z,1.30
2022-10-17T11:37:29.410Z,1.20
2022-10-17T11:40:37.637Z,1.40
2022-10-17T11:43:45.602Z,1.60
2022-10-17T11:46:53.131Z,1.20
2022-10-17T11:51:59.860Z,1.00
2022-10-17T11:53:06.375Z,1.00
2022-10-17T11:56:13.827Z,0.90
2022-10-17T11:59:22.096Z,1.20
2022-10-17T12:02:30.202Z,1.20
2022-10-17T12:05:38.311Z,1.00
2022-10-17T12:08:46.598Z,1.30
2022-10-17T12:11:54.464Z,0.90
2022-10-17T12:15:02.117Z,1.50
2022-10-17T12:18:09.754Z,1.40
2022-10-17T12:21:18.035Z,1.20
2022-10-17T12:24:25.795Z,0.90
2022-10-17T12:27:33.639Z,1.60
2022-10-17T12:30:41.559Z,1.10
2022-10-17T12:33:49.400Z,1.30
2022-10-17T12:36:57.203Z,1.10
2022-10-17T12:40:04.782Z,1.10
2022-10-17T12:43:12.002Z,1.10
2022-10-17T12:46:19.774Z,1.40
2022-10-17T12:49:27.326Z,1.40
2022-10-17T12:52:34.777Z,1.30
2022-10-17T12:55:42.838Z,1.60
2022-10-17T12:58:50.482Z,1.00
2022-10-17T13:01:57.651Z,1.10
2022-10-17T13:05:05.623Z,1.20
2022-10-17T13:08:13.223Z,1.10
2022-10-17T13:11:20.687Z,0.90
2022-10-17T13:14:28.915Z,1.10
2022-10-17T13:17:36.817Z,1.20
2022-10-17T13:20:45.937Z,0.90
2022-10-17T13:23:53.897Z,0.90
2022-10-17T13:27:01.139Z,1.30
2022-10-17T13:30:09.499Z,1.10
2022-10-17T13:33:17.264Z,1.10
2022-10-17T13:36:24.542Z,0.90
2022-10-17T13:39:45.638Z,1.20
2022-10-17T13:42:37.457Z,1.10
2022-10-17T13:45:45.658Z,1.00
2022-10-17T13:48:53.534Z,1.10
2022-10-17T13:52:01.009Z,0.80
2022-10-17T13:55:09.020Z,1.10
2022-10-17T13:58:16.202Z,1.00
2022-10-17T14:01:24.175Z,1.00
2022-10-17T14:04:44.811Z,0.90
2022-10-17T14:07:58.338Z,0.80
2022-10-17T14:10:42.079Z,1.30
2022-10-17T14:13:49.697Z,1.00
2022-10-17T14:16:57.389Z,1.40
2022-10-17T14:20:34.070Z,1.20
2022-10-17T14:23:22.457Z,1.20
2022-10-17T14:26:14.902Z,1.40
2022-10-17T14:29:22.700Z,1.40
2022-10-17T14:32:29.966Z,1.60
2022-10-17T14:35:42.049Z,1.20
2022-10-17T14:38:39.097Z,1.40
2022-10-17T14:41:46.400Z,1.00
2022-10-17T14:44:54.157Z,1.30
2022-10-17T14:48:01.418Z,1.40
2022-10-17T14:51:09.263Z,1.10
2022-10-17T14:54:16.914Z,1.20
2022-10-17T14:57:24.079Z,1.20
2022-10-17T15:00:31.874Z,1.20
2022-10-17T15:03:39.418Z,1.10
2022-10-17T15:06:47.347Z,1.10
2022-10-17T15:09:54.806Z,1.20
2022-10-17T15:16:07.350Z,1.30
2022-10-17T15:19:14.532Z,1.30
2022-10-17T15:22:22.451Z,1.80
2022-10-17T15:25:29.956Z,1.40
2022-10-17T15:28:37.253Z,1.40
2022-10-17T15:31:45.088Z,1.50
2022-10-17T15:34:52.638Z,1.80
2022-10-17T15:38:00.248Z,1.40
2022-10-17T15:41:07.985Z,1.60
2022-10-17T15:44:16.089Z,1.50
2022-10-17T15:47:24.474Z,1.90
2022-10-17T15:50:32.414Z,1.80
2022-10-17T15:53:39.514Z,2.10
2022-10-17T15:56:47.527Z,1.80
2022-10-17T15:59:55.805Z,1.90
2022-10-17T16:03:03.225Z,2.00
2022-10-17T16:06:13.547Z,1.70
2022-10-17T16:09:10.928Z,1.70
2022-10-17T16:12:18.586Z,1.80
2022-10-17T16:15:26.390Z,2.20
2022-10-17T16:18:34.151Z,1.70
2022-10-17T16:21:42.399Z,2.00
2022-10-17T16:24:50.167Z,1.90
2022-10-17T16:27:57.817Z,2.60
2022-10-17T16:31:05.690Z,2.50
2022-10-17T16:34:14.550Z,1.80
2022-10-17T16:37:22.439Z,1.70
2022-10-17T16:40:30.001Z,2.10
2022-10-17T16:43:37.623Z,1.90
2022-10-17T16:46:45.303Z,1.80
2022-10-17T16:49:52.943Z,2.00
2022-10-17T16:53:00.834Z,2.00
2022-10-17T16:56:08.770Z,2.00
2022-10-17T16:59:16.264Z,1.80
2022-10-17T17:02:23.971Z,2.20
2022-10-17T17:05:31.962Z,2.40
2022-10-17T17:08:39.212Z,2.10
2022-10-17T17:11:47.392Z,2.20
2022-10-17T17:14:55.283Z,2.10
2022-10-17T17:18:05.270Z,2.20
2022-10-17T17:21:03.080Z,2.80
2022-10-17T17:24:10.577Z,2.70
2022-10-17T17:27:17.819Z,2.50
2022-10-17T17:30:25.628Z,2.60
2022-10-17T17:33:33.431Z,2.30
2022-10-17T17:36:41.202Z,2.30
2022-10-17T17:39:49.228Z,2.40
2022-10-17T17:42:56.759Z,2.20
2022-10-17T17:46:04.275Z,2.30
2022-10-17T17:49:12.167Z,2.80
2022-10-17T17:52:19.705Z,3.00
2022-10-17T17:55:27.448Z,3.40
2022-10-17T17:58:35.179Z,2.90
2022-10-17T18:01:43.358Z,3.00
2022-10-17T18:04:51.179Z,3.10
2022-10-17T18:07:58.662Z,2.90
2022-10-17T18:11:06.683Z,2.90
2022-10-17T18:14:14.232Z,2.50
2022-10-17T18:17:21.983Z,2.80
2022-10-17T18:20:30.163Z,2.80
2022-10-17T18:23:37.342Z,2.70
2022-10-17T18:26:45.279Z,2.90
2022-10-17T18:29:53.497Z,3.00
2022-10-17T18:33:00.821Z,2.50
2022-10-17T18:36:08.962Z,2.90
2022-10-17T18:39:17.094Z,3.40
2022-10-17T18:42:24.459Z,2.90
2022-10-17T18:45:32.545Z,3.20
2022-10-17T18:48:39.955Z,3.20
2022-10-17T18:51:47.487Z,3.50
2022-10-17T18:54:55.429Z,3.70
2022-10-17T18:58:03.020Z,3.30
2022-10-17T19:01:11.168Z,3.50
2022-10-17T19:04:18.828Z,3.30
2022-10-17T19:07:26.347Z,3.20
2022-10-17T19:10:34.344Z,3.10
2022-10-17T19:13:41.643Z,3.10
2022-10-17T19:16:49.781Z,3.20
2022-10-17T19:19:57.728Z,3.10
2022-10-17T19:23:05.020Z,3.80
2022-10-17T19:26:13.264Z,3.40
2022-10-17T19:29:21.180Z,3.20
2022-10-17T19:32:28.380Z,3.50
2022-10-17T19:35:36.002Z,3.60
2022-10-17T19:38:44.037Z,3.10
2022-10-17T19:41:51.372Z,3.20
2022-10-17T19:44:59.368Z,3.60
2022-10-17T19:48:06.947Z,3.30
2022-10-17T19:51:14.577Z,3.20
2022-10-17T19:54:22.658Z,3.10
2022-10-17T19:57:30.418Z,3.30
2022-10-17T20:00:38.048Z,3.20
2022-10-17T20:03:46.178Z,3.00
2022-10-17T20:06:53.852Z,3.50
2022-10-17T20:10:01.513Z,3.00
2022-10-17T20:13:10.026Z,3.20
2022-10-17T20:16:18.347Z,3.10
2022-10-17T20:19:25.907Z,3.00
2022-10-17T20:22:33.481Z,2.90
2022-10-17T20:25:40.885Z,3.10
2022-10-17T20:28:49.801Z,3.90
2022-10-17T20:31:57.514Z,3.60
2022-10-17T20:35:05.225Z,3.30
2022-10-17T20:38:13.227Z,3.00
2022-10-17T20:41:20.975Z,3.30
2022-10-17T20:44:29.016Z,3.30
2022-10-17T20:47:45.880Z,3.10
2022-10-17T20:50:42.266Z,3.50
2022-10-17T20:53:49.982Z,3.20
2022-10-17T20:56:59.893Z,3.40
2022-10-17T20:59:59.719Z,4.20
2022-10-17T21:03:07.329Z,4.00
2022-10-17T21:06:15.154Z,4.10
2022-10-17T21:09:22.795Z,3.80
2022-10-17T21:12:36.807Z,4.40
2022-10-17T21:15:34.910Z,4.60
2022-10-17T21:18:42.857Z,4.70
2022-10-17T21:21:50.349Z,5.50
2022-10-17T21:24:58.080Z,5.50
2022-10-17T21:28:06.072Z,5.70
2022-10-17T21:31:13.872Z,6.30
2022-10-17T21:34:24.053Z,6.50
2022-10-17T21:37:31.615Z,6.50
2022-10-17T21:40:39.526Z,8.20
2022-10-17T21:43:47.136Z,8.90
2022-10-17T21:46:54.686Z,8.90
2022-10-17T21:50:02.960Z,9.40
2022-10-17T21:53:10.517Z,10.50
2022-10-17T21:56:17.940Z,11.20
2022-10-17T21:59:25.781Z,11.20
2022-10-17T22:02:33.240Z,12.40
2022-10-17T22:05:41.093Z,12.40
2022-10-17T22:08:48.769Z,12.60
2022-10-17T22:11:55.813Z,13.80
2022-10-17T22:15:03.573Z,14.00
2022-10-17T22:18:11.446Z,13.60
2022-10-17T22:21:18.557Z,14.00
2022-10-17T22:24:26.624Z,13.90
2022-10-17T22:27:34.115Z,14.30
2022-10-17T22:30:41.690Z,14.80
2022-10-17T22:33:49.682Z,15.50
2022-10-17T22:36:57.284Z,15.50
2022-10-17T22:40:04.827Z,15.40
2022-10-17T22:43:12.764Z,15.60
2022-10-17T22:46:20.385Z,16.20
2022-10-17T22:49:28.066Z,16.10
2022-10-17T22:52:35.897Z,16.30
2022-10-17T22:55:43.355Z,16.90
2022-10-17T22:58:50.789Z,16.80
2022-10-17T23:01:58.242Z,17.20
2022-10-17T23:05:06.239Z,17.80
2022-10-17T23:08:13.760Z,18.80
2022-10-17T23:11:21.257Z,19.40
2022-10-17T23:14:29.044Z,18.90
2022-10-17T23:17:36.625Z,19.60
2022-10-17T23:20:43.996Z,20.20
2022-10-17T23:23:51.826Z,19.60
2022-10-17T23:26:58.864Z,20.50
2022-10-17T23:30:06.729Z,19.60
2022-10-17T23:33:14.680Z,21.00
2022-10-17T23:36:21.913Z,19.80
2022-10-17T23:39:29.688Z,21.40
2022-10-17T23:42:37.382Z,21.80
2022-10-17T23:45:44.558Z,22.20
2022-10-17T23:48:52.568Z,23.60
2022-10-17T23:52:00.427Z,24.80
2022-10-17T23:55:07.580Z,25.80
2022-10-17T23:58:15.529Z,25.70
